Time;durP1;ratioP1;P1;durP2;ratioP2;P2;SDS_P1;SDS_P2;PMS_P1;PMS_P2;Temp;Humidity;BMP_temperature;BMP_pressure;BME280_temperature;BME280_humidity;BME280_pressure;Samples;Min_cycle;Max_cycle;Signal;HPM_P1;HPM_P2
2022/08/07 00:00:51;;;;;;;0.00;0.00;;;17.00;84.70;;;;;;10501477;28;20121;-58
2022/08/07 00:05:53;;;;;;;0.28;0.10;;;16.90;85.20;;;;;;10505849;28;20048;-57
2022/08/07 00:10:55;;;;;;;1.55;0.10;;;16.90;86.20;;;;;;10502098;28;20087;-57
2022/08/07 00:15:59;;;;;;;0.10;0.00;;;16.80;86.10;;;;;;10495643;28;20066;-58
2022/08/07 00:21:05;;;;;;;0.20;0.08;;;16.80;86.50;;;;;;10500057;28;20055;-57
2022/08/07 00:26:26;;;;;;;0.32;0.08;;;16.70;86.80;;;;;;10503042;28;20079;-57
2022/08/07 00:31:48;;;;;;;0.10;0.10;;;16.60;87.70;;;;;;10491136;28;20053;-58
2022/08/07 00:36:52;;;;;;;0.47;0.10;;;16.60;88.30;;;;;;10498715;28;20048;-58
2022/08/07 00:41:58;;;;;;;0.73;0.10;;;16.50;89.30;;;;;;10501453;28;20515;-57
2022/08/07 00:47:07;;;;;;;1.20;0.00;;;16.40;89.40;;;;;;10499360;28;20057;-58
2022/08/07 00:52:29;;;;;;;0.22;0.03;;;16.30;89.70;;;;;;10495654;28;20122;-57
2022/08/07 00:57:37;;;;;;;0.17;0.00;;;16.20;90.10;;;;;;10499618;28;20052;-57
2022/08/07 01:02:56;;;;;;;0.10;0.00;;;16.20;90.20;;;;;;10500401;28;20131;-57
2022/08/07 01:07:58;;;;;;;0.20;0.00;;;16.10;90.60;;;;;;10497668;28;20457;-57
2022/08/07 01:13:00;;;;;;;1.13;0.00;;;16.10;90.90;;;;;;10497727;28;20056;-58
2022/08/07 01:18:03;;;;;;;0.08;0.03;;;16.00;91.70;;;;;;10497448;28;20352;-57
2022/08/07 01:23:11;;;;;;;2.60;0.05;;;15.80;92.20;;;;;;10493041;28;20037;-58
2022/08/07 01:28:14;;;;;;;2.05;0.10;;;15.60;92.70;;;;;;10498971;28;20052;-58
2022/08/07 01:33:16;;;;;;;1.67;0.20;;;15.50;93.00;;;;;;10493893;28;20055;-58
2022/08/07 01:38:18;;;;;;;4.82;0.40;;;15.40;93.60;;;;;;10497204;28;20056;-58
2022/08/07 01:43:28;;;;;;;1.02;0.22;;;15.30;94.20;;;;;;10490679;28;20135;-59
2022/08/07 01:48:41;;;;;;;1.88;0.10;;;15.30;94.40;;;;;;10498321;28;20040;-59
2022/08/07 01:53:53;;;;;;;1.33;0.10;;;15.20;94.90;;;;;;10497953;28;20703;-58
2022/08/07 01:59:21;;;;;;;2.25;0.10;;;15.20;95.30;;;;;;10497531;28;20052;-58
2022/08/07 02:04:36;;;;;;;0.10;0.05;;;15.10;95.90;;;;;;10497443;28;20435;-59
2022/08/07 02:09:41;;;;;;;0.10;0.10;;;15.10;96.40;;;;;;10493823;28;20048;-59
2022/08/07 02:15:00;;;;;;;2.08;0.10;;;15.00;96.80;;;;;;10490797;28;20052;-59
2022/08/07 02:20:09;;;;;;;0.95;0.10;;;14.90;97.30;;;;;;10490696;28;20050;-61
2022/08/07 02:25:26;;;;;;;0.93;0.10;;;14.80;97.70;;;;;;10494267;28;20093;-59
2022/08/07 02:30:49;;;;;;;0.08;0.00;;;14.80;98.20;;;;;;10492715;28;20114;-59
2022/08/07 02:35:52;;;;;;;0.20;0.05;;;14.70;98.60;;;;;;10496668;28;20117;-58
2022/08/07 02:41:14;;;;;;;0.28;0.08;;;14.60;99.00;;;;;;10492392;28;20053;-59
2022/08/07 02:46:25;;;;;;;1.02;0.10;;;14.50;99.50;;;;;;10496576;28;20044;-59
2022/08/07 02:51:33;;;;;;;0.28;0.10;;;14.40;99.90;;;;;;10493771;28;20052;-59
2022/08/07 02:56:55;;;;;;;0.15;0.10;;;14.30;99.90;;;;;;10494053;28;20056;-59
2022/08/07 03:01:58;;;;;;;1.35;0.10;;;14.30;99.90;;;;;;10496950;28;20048;-58
2022/08/07 03:07:03;;;;;;;4.67;0.10;;;14.30;99.90;;;;;;10500331;28;20059;-58
2022/08/07 03:12:12;;;;;;;0.05;0.00;;;14.30;99.90;;;;;;10501058;28;20143;-58
2022/08/07 03:17:23;;;;;;;0.55;0.05;;;14.20;99.90;;;;;;10502930;28;20090;-59
2022/08/07 03:22:27;;;;;;;0.32;0.13;;;14.20;99.90;;;;;;10501016;28;20061;-59
2022/08/07 03:27:32;;;;;;;0.15;0.10;;;14.20;99.90;;;;;;10501998;28;20052;-58
2022/08/07 03:32:55;;;;;;;0.00;0.00;;;14.10;99.90;;;;;;10503955;28;20056;-57
2022/08/07 03:38:03;;;;;;;0.25;0.00;;;14.10;99.90;;;;;;10501618;28;20040;-58
2022/08/07 03:43:06;;;;;;;0.90;0.10;;;14.10;99.90;;;;;;10502711;28;20037;-58
2022/08/07 03:48:15;;;;;;;0.10;0.10;;;14.00;99.90;;;;;;10506494;28;20148;-58
2022/08/07 03:53:17;;;;;;;0.13;0.05;;;14.00;99.90;;;;;;10494695;28;20043;-58
2022/08/07 03:58:31;;;;;;;0.47;0.10;;;13.90;99.90;;;;;;10502516;28;20131;-57
2022/08/07 04:03:53;;;;;;;0.20;0.13;;;13.90;99.90;;;;;;10498661;28;20087;-62
2022/08/07 04:08:56;;;;;;;0.03;0.00;;;13.90;99.90;;;;;;10499231;28;20054;-62
2022/08/07 04:14:00;;;;;;;0.15;0.03;;;13.90;99.90;;;;;;10499844;28;20043;-62
2022/08/07 04:19:24;;;;;;;0.10;0.10;;;13.90;99.90;;;;;;10498771;28;20052;-62
2022/08/07 04:24:47;;;;;;;0.10;0.10;;;13.90;99.90;;;;;;10498788;28;20137;-62
2022/08/07 04:29:50;;;;;;;0.13;0.10;;;13.90;99.90;;;;;;10496431;28;20157;-62
2022/08/07 04:35:04;;;;;;;0.20;0.10;;;13.80;99.90;;;;;;10498728;28;20469;-62
2022/08/07 04:40:08;;;;;;;0.00;0.00;;;13.80;99.90;;;;;;10495062;28;20058;-61
2022/08/07 04:45:13;;;;;;;0.40;0.10;;;13.70;99.90;;;;;;10495536;28;20044;-62
2022/08/07 04:50:29;;;;;;;3.50;0.10;;;13.80;99.90;;;;;;10501894;28;21769;-62
2022/08/07 04:55:40;;;;;;;1.95;0.20;;;13.80;99.90;;;;;;10497266;28;20041;-62
2022/08/07 05:01:14;;;;;;;0.38;0.10;;;13.90;99.90;;;;;;10495662;28;20046;-62
2022/08/07 05:06:29;;;;;;;0.10;0.10;;;13.30;99.90;;;;;;10497156;28;20068;-62
2022/08/07 05:11:51;;;;;;;2.25;0.10;;;14.10;99.90;;;;;;10496174;28;20040;-62
2022/08/07 05:17:03;;;;;;;1.75;0.00;;;14.20;99.90;;;;;;10495256;28;20049;-62
2022/08/07 05:22:14;;;;;;;0.63;0.10;;;14.30;99.90;;;;;;10499034;28;20048;-62
2022/08/07 05:27:29;;;;;;;4.75;0.10;;;14.40;99.90;;;;;;10497282;28;20062;-62
2022/08/07 05:32:53;;;;;;;3.45;0.17;;;14.50;99.90;;;;;;10494230;28;20048;-62
2022/08/07 05:37:55;;;;;;;1.42;0.40;;;14.70;99.90;;;;;;10496661;28;20067;-61
2022/08/07 05:43:10;;;;;;;0.45;0.10;;;14.80;99.90;;;;;;10494613;28;20045;-61
2022/08/07 05:48:14;;;;;;;0.90;0.00;;;15.00;99.90;;;;;;10493260;28;20044;-61
2022/08/07 05:53:17;;;;;;;2.55;0.10;;;15.20;99.90;;;;;;10496671;28;20040;-62
2022/08/07 05:58:40;;;;;;;2.92;0.10;;;15.30;99.90;;;;;;10494796;28;20043;-62
2022/08/07 06:03:55;;;;;;;15.68;2.92;;;15.40;99.90;;;;;;10493472;28;20110;-62
2022/08/07 06:09:03;;;;;;;5.43;0.85;;;15.60;99.90;;;;;;10493639;28;20056;-62
2022/08/07 06:14:05;;;;;;;2.00;0.35;;;15.80;99.90;;;;;;10490099;28;20487;-62
2022/08/07 06:19:21;;;;;;;1.83;0.20;;;16.00;99.90;;;;;;10488465;28;20040;-62
2022/08/07 06:24:43;;;;;;;1.00;0.20;;;16.20;99.90;;;;;;10493555;28;20130;-62
2022/08/07 06:29:59;;;;;;;2.40;0.20;;;16.40;99.90;;;;;;10495844;28;20040;-61
2022/08/07 06:35:02;;;;;;;2.65;0.40;;;16.60;99.90;;;;;;10491954;28;20056;-62
2022/08/07 06:40:18;;;;;;;0.25;0.10;;;16.80;99.90;;;;;;10490005;28;20113;-61
2022/08/07 06:45:23;;;;;;;3.50;0.10;;;17.00;99.90;;;;;;10495910;28;20482;-61
2022/08/07 06:50:26;;;;;;;1.27;0.10;;;17.20;99.70;;;;;;10495545;28;20056;-61
2022/08/07 06:55:33;;;;;;;0.10;0.08;;;17.40;99.50;;;;;;10501975;28;20056;-61
2022/08/07 07:00:56;;;;;;;0.10;0.03;;;17.50;98.70;;;;;;10495129;28;20137;-61
2022/08/07 07:05:58;;;;;;;0.40;0.00;;;17.80;98.50;;;;;;10491495;28;20048;-61
2022/08/07 07:11:06;;;;;;;0.00;0.00;;;17.90;97.60;;;;;;10487972;28;20406;-61
2022/08/07 07:16:19;;;;;;;0.95;0.10;;;18.10;97.90;;;;;;10486105;28;20044;-64
2022/08/07 07:21:26;;;;;;;2.80;0.10;;;18.30;97.20;;;;;;10490699;28;20051;-63
2022/08/07 07:26:52;;;;;;;0.30;0.00;;;18.40;96.90;;;;;;10491530;28;20511;-63
2022/08/07 07:31:56;;;;;;;0.40;0.10;;;18.60;96.80;;;;;;10494695;28;20044;-63
2022/08/07 07:37:02;;;;;;;0.00;0.00;;;18.80;96.20;;;;;;10491319;28;22566;-64
2022/08/07 07:42:26;;;;;;;0.40;0.10;;;19.00;95.70;;;;;;10448888;28;20072;-64
2022/08/07 07:47:37;;;;;;;0.90;0.10;;;19.10;95.50;;;;;;10452208;28;20373;-64
2022/08/07 07:52:55;;;;;;;1.73;0.00;;;19.20;94.90;;;;;;10452976;28;20053;-64
2022/08/07 07:57:57;;;;;;;1.65;0.25;;;19.40;94.40;;;;;;10451512;28;20063;-64
2022/08/07 08:03:08;;;;;;;0.13;0.00;;;19.50;95.00;;;;;;10461895;28;23809;-64
2022/08/07 08:08:18;;;;;;;0.10;0.08;;;19.70;94.40;;;;;;10457617;28;20044;-64
2022/08/07 08:13:41;;;;;;;0.55;0.00;;;19.90;93.70;;;;;;10464110;28;20044;-64
2022/08/07 08:18:57;;;;;;;1.08;0.00;;;20.20;95.30;;;;;;10455729;28;20048;-63
2022/08/07 08:29:49;;;;;;;0.28;0.28;;;20.60;93.40;;;;;;10455533;28;20060;-63
2022/08/07 08:34:58;;;;;;;0.03;0.00;;;20.80;92.40;;;;;;10465837;28;20056;-64
2022/08/07 08:40:01;;;;;;;0.47;0.10;;;21.00;92.10;;;;;;10460889;28;20118;-64
2022/08/07 08:45:30;;;;;;;0.00;0.00;;;21.00;91.90;;;;;;10457102;28;20045;-64
2022/08/07 08:51:23;;;;;;;0.10;0.10;;;21.30;91.50;;;;;;10448112;28;20102;-64
2022/08/07 08:56:49;;;;;;;0.10;0.00;;;21.50;91.00;;;;;;10449940;28;20108;-64
2022/08/07 09:02:20;;;;;;;0.00;0.00;;;21.90;90.30;;;;;;10461033;28;20394;-64
2022/08/07 09:07:58;;;;;;;0.17;0.00;;;22.00;89.40;;;;;;10451037;28;20048;-64
2022/08/07 09:13:22;;;;;;;0.10;0.00;;;22.20;88.50;;;;;;10455016;28;20136;-64
2022/08/07 09:19:05;;;;;;;0.85;0.00;;;22.30;87.10;;;;;;10448624;28;20143;-64
2022/08/07 09:24:38;;;;;;;0.25;0.05;;;22.50;88.70;;;;;;10451401;28;20041;-65
2022/08/07 09:30:06;;;;;;;1.95;0.10;;;22.60;88.00;;;;;;10452147;28;20110;-64
2022/08/07 09:35:24;;;;;;;1.95;0.10;;;22.80;87.40;;;;;;10451106;28;20049;-64
2022/08/07 09:41:08;;;;;;;0.73;0.10;;;22.90;85.70;;;;;;10452314;28;20146;-64
2022/08/07 09:46:37;;;;;;;0.28;0.10;;;23.20;87.20;;;;;;10459093;28;20060;-64
2022/08/07 09:52:29;;;;;;;1.60;0.10;;;23.30;84.70;;;;;;10453955;28;20077;-64
2022/08/07 09:58:08;;;;;;;0.10;0.10;;;23.50;84.50;;;;;;10452414;28;20135;-63
2022/08/07 10:03:33;;;;;;;0.65;0.10;;;23.80;85.20;;;;;;10452429;28;20048;-64
2022/08/07 10:09:23;;;;;;;1.30;0.10;;;24.00;84.90;;;;;;10451967;28;20045;-63
2022/08/07 10:15:08;;;;;;;1.48;0.60;;;24.10;80.90;;;;;;10447616;28;20053;-64
2022/08/07 10:20:46;;;;;;;0.70;0.05;;;24.40;81.70;;;;;;10443695;28;20502;-64
2022/08/07 10:26:23;;;;;;;0.82;0.10;;;24.60;78.40;;;;;;10451393;28;20515;-64
2022/08/07 10:31:36;;;;;;;1.85;0.43;;;24.50;77.00;;;;;;10464728;28;20079;-64
2022/08/07 10:37:09;;;;;;;1.13;0.05;;;24.70;75.80;;;;;;10457717;28;20075;-64
2022/08/07 10:42:48;;;;;;;0.00;0.00;;;25.10;76.10;;;;;;10451943;28;20040;-63
2022/08/07 10:48:12;;;;;;;1.55;0.00;;;25.60;73.00;;;;;;10398079;28;20135;-64
2022/08/07 10:53:35;;;;;;;0.65;0.10;;;25.50;72.30;;;;;;10454899;28;20099;-63
2022/08/07 10:59:00;;;;;;;1.75;0.00;;;25.80;71.70;;;;;;10449344;28;20136;-62
2022/08/07 11:04:25;;;;;;;0.10;0.10;;;26.30;70.50;;;;;;10452426;28;20110;-62
2022/08/07 11:09:44;;;;;;;0.85;0.03;;;26.40;68.30;;;;;;10451145;28;20048;-62
2022/08/07 11:15:22;;;;;;;2.03;0.10;;;26.80;68.50;;;;;;10450511;28;20045;-61
2022/08/07 11:20:55;;;;;;;0.60;0.00;;;27.00;64.50;;;;;;10451560;28;20098;-63
2022/08/07 11:26:16;;;;;;;1.02;0.00;;;27.40;67.00;;;;;;10450272;28;20061;-62
2022/08/07 11:31:37;;;;;;;0.40;0.00;;;27.70;65.20;;;;;;10459102;28;20044;-61
2022/08/07 11:36:55;;;;;;;0.70;0.00;;;27.70;63.10;;;;;;10472994;28;20055;-62
2022/08/07 11:42:28;;;;;;;0.10;0.00;;;28.00;64.40;;;;;;10459579;28;20129;-64
2022/08/07 11:47:54;;;;;;;0.13;0.10;;;28.10;61.40;;;;;;10455623;28;20115;-63
2022/08/07 11:53:21;;;;;;;0.20;0.10;;;27.30;61.40;;;;;;10454140;28;20899;-63
2022/08/07 11:58:46;;;;;;;0.45;0.00;;;27.70;60.80;;;;;;10459285;28;20043;-63
2022/08/07 12:04:23;;;;;;;0.10;0.10;;;27.50;60.00;;;;;;10458695;28;20091;-63
2022/08/07 12:09:44;;;;;;;0.70;0.10;;;27.70;62.20;;;;;;10458797;28;20036;-63
2022/08/07 12:15:06;;;;;;;0.45;0.00;;;28.30;61.10;;;;;;10458045;28;20132;-62
2022/08/07 12:20:29;;;;;;;0.40;0.00;;;28.60;59.20;;;;;;10457802;28;20131;-62
2022/08/07 12:25:59;;;;;;;0.05;0.00;;;28.20;57.60;;;;;;10455725;28;20041;-62
2022/08/07 12:31:30;;;;;;;0.45;0.00;;;28.70;58.80;;;;;;10455116;28;20131;-62
2022/08/07 12:36:53;;;;;;;0.63;0.03;;;28.80;58.00;;;;;;10459201;28;20136;-62
2022/08/07 12:41:57;;;;;;;1.08;0.10;;;28.60;58.30;;;;;;10456750;28;20056;-62
2022/08/07 12:47:22;;;;;;;0.00;0.00;;;29.10;57.10;;;;;;10459314;28;20048;-63
2022/08/07 12:52:33;;;;;;;0.00;0.00;;;29.20;56.70;;;;;;10461307;28;20080;-62
2022/08/07 12:57:38;;;;;;;0.05;0.00;;;29.20;56.40;;;;;;10454766;28;20052;-61
2022/08/07 13:03:16;;;;;;;0.70;0.10;;;29.30;55.60;;;;;;10456101;28;20076;-62
2022/08/07 13:08:58;;;;;;;0.55;0.03;;;29.40;57.60;;;;;;10452590;28;20135;-62
2022/08/07 13:14:23;;;;;;;0.20;0.00;;;29.60;57.00;;;;;;10454504;28;20061;-62
2022/08/07 13:19:33;;;;;;;0.38;0.00;;;29.90;56.30;;;;;;10452054;28;20130;-61
2022/08/07 13:25:04;;;;;;;0.10;0.00;;;30.10;55.50;;;;;;10461094;28;20051;-63
2022/08/07 13:30:09;;;;;;;2.72;0.05;;;29.90;53.50;;;;;;10454794;28;20041;-62
2022/08/07 13:35:46;;;;;;;1.95;0.08;;;30.20;54.00;;;;;;10450588;28;20567;-62
2022/08/07 13:41:41;;;;;;;0.60;0.05;;;30.20;52.80;;;;;;10449794;28;20047;-62
2022/08/07 13:46:53;;;;;;;0.85;0.10;;;30.20;52.90;;;;;;10451745;28;20052;-62
2022/08/07 13:51:55;;;;;;;0.20;0.10;;;30.40;53.50;;;;;;10453879;28;20507;-61
2022/08/07 13:57:21;;;;;;;0.25;0.00;;;30.20;52.00;;;;;;10452838;28;20102;-61
2022/08/07 14:02:28;;;;;;;1.20;0.10;;;30.70;52.00;;;;;;10452032;28;20056;-61
2022/08/07 14:07:46;;;;;;;0.52;0.00;;;30.90;51.30;;;;;;10453707;28;20056;-62
2022/08/07 14:13:03;;;;;;;0.32;0.00;;;30.80;51.10;;;;;;10449548;28;20140;-62
2022/08/07 14:18:12;;;;;;;0.10;0.00;;;30.80;50.50;;;;;;10453378;28;20510;-62
2022/08/07 14:23:34;;;;;;;2.75;0.10;;;31.00;50.10;;;;;;10454014;28;20437;-62
2022/08/07 14:28:58;;;;;;;0.20;0.00;;;30.80;50.80;;;;;;10448195;28;20149;-62
2022/08/07 14:34:08;;;;;;;0.73;0.00;;;31.40;49.20;;;;;;10453686;28;20552;-61
2022/08/07 14:39:12;;;;;;;2.30;0.10;;;31.50;48.60;;;;;;10454765;28;20045;-61
2022/08/07 14:44:36;;;;;;;0.22;0.10;;;32.20;49.20;;;;;;10449093;28;20128;-62
2022/08/07 14:49:39;;;;;;;0.75;0.10;;;32.30;47.80;;;;;;10459864;28;20515;-62
2022/08/07 14:55:01;;;;;;;0.00;0.00;;;31.60;47.20;;;;;;10446860;28;20072;-62
2022/08/07 15:00:06;;;;;;;2.40;0.00;;;31.90;47.90;;;;;;10452173;28;20132;-62
2022/08/07 15:05:14;;;;;;;0.03;0.03;;;32.40;47.80;;;;;;10448801;28;20397;-62
2022/08/07 15:10:25;;;;;;;1.27;0.00;;;33.00;48.20;;;;;;10451975;28;20045;-63
2022/08/07 15:15:44;;;;;;;0.13;0.00;;;33.10;46.40;;;;;;10452121;28;20135;-63
2022/08/07 15:21:30;;;;;;;0.70;0.10;;;33.30;46.90;;;;;;10452076;28;20045;-62
2022/08/07 15:27:09;;;;;;;0.40;0.03;;;33.10;45.50;;;;;;10455706;28;20088;-62
2022/08/07 15:32:11;;;;;;;0.22;0.05;;;33.00;45.30;;;;;;10450227;28;20059;-62
2022/08/07 15:37:15;;;;;;;0.08;0.00;;;33.30;46.30;;;;;;10451613;28;20045;-62
2022/08/07 15:42:51;;;;;;;4.28;0.10;;;33.30;45.70;;;;;;10455538;28;20072;-62
2022/08/07 15:47:59;;;;;;;0.93;0.20;;;33.10;45.40;;;;;;10452205;28;20060;-62
2022/08/07 15:53:10;;;;;;;0.95;0.30;;;32.60;45.10;;;;;;10453192;28;20066;-61
2022/08/07 15:58:14;;;;;;;0.73;0.10;;;32.40;45.20;;;;;;10445457;28;20069;-61
2022/08/07 16:03:25;;;;;;;0.13;0.10;;;31.80;46.00;;;;;;10444241;28;20044;-61
2022/08/07 16:08:47;;;;;;;;;;;31.80;46.90;;;;;;10451556;28;20464;-62
2022/08/07 16:14:10;;;;;;;0.13;0.03;;;32.20;45.90;;;;;;10449423;28;19920;-62
2022/08/07 16:19:43;;;;;;;2.00;0.20;;;32.30;46.40;;;;;;10462151;28;20709;-63
2022/08/07 16:25:26;;;;;;;0.13;0.00;;;32.40;45.70;;;;;;10455191;28;20041;-65
2022/08/07 16:31:18;;;;;;;0.70;0.10;;;32.20;46.90;;;;;;10454145;28;20064;-66
2022/08/07 16:37:12;;;;;;;0.00;0.00;;;31.80;46.00;;;;;;10459802;28;20083;-62
2022/08/07 16:42:53;;;;;;;0.20;0.10;;;32.00;46.70;;;;;;10454879;28;20144;-62
2022/08/07 16:48:08;;;;;;;0.20;0.10;;;32.00;46.50;;;;;;10453549;28;20056;-65
2022/08/07 16:53:56;;;;;;;0.20;0.10;;;32.10;46.40;;;;;;10458898;28;20048;-62
2022/08/07 16:59:23;;;;;;;0.20;0.10;;;31.70;46.30;;;;;;10456702;28;20049;-63
2022/08/07 17:05:25;;;;;;;0.82;0.10;;;31.50;46.60;;;;;;10453911;28;20060;-62
2022/08/07 17:10:53;;;;;;;0.65;0.10;;;31.00;46.70;;;;;;10444462;28;20081;-62
2022/08/07 17:16:15;;;;;;;1.30;0.10;;;30.90;47.10;;;;;;10456345;28;20059;-63
2022/08/07 17:21:22;;;;;;;0.10;0.10;;;30.40;47.20;;;;;;10453507;28;20474;-62
2022/08/07 17:26:35;;;;;;;0.65;0.10;;;30.20;47.50;;;;;;10454473;28;20492;-63
2022/08/07 17:32:02;;;;;;;1.27;0.10;;;29.80;47.60;;;;;;10453102;28;20040;-63
2022/08/07 17:37:16;;;;;;;0.43;0.00;;;29.70;47.90;;;;;;10457141;28;20483;-62
2022/08/07 17:42:50;;;;;;;0.13;0.03;;;29.60;47.80;;;;;;10453301;28;20057;-62
2022/08/07 17:48:16;;;;;;;0.00;0.00;;;29.20;47.90;;;;;;10452320;28;20049;-62
2022/08/07 17:53:56;;;;;;;0.25;0.03;;;29.20;48.70;;;;;;10452169;28;20048;-62
2022/08/07 17:59:23;;;;;;;1.45;0.10;;;29.20;48.10;;;;;;10451868;28;20045;-62
2022/08/07 18:04:44;;;;;;;0.10;0.00;;;28.70;48.40;;;;;;10452856;28;20049;-63
2022/08/07 18:09:53;;;;;;;0.65;0.20;;;28.20;49.20;;;;;;10456319;28;20044;-61
2022/08/07 18:15:21;;;;;;;0.10;0.05;;;27.70;49.70;;;;;;10458677;28;20045;-62
2022/08/07 18:20:43;;;;;;;0.22;0.10;;;27.20;50.40;;;;;;10446852;28;20068;-63
2022/08/07 18:26:10;;;;;;;0.10;0.00;;;26.70;50.90;;;;;;10449410;28;20097;-63
2022/08/07 18:31:22;;;;;;;0.00;0.00;;;26.40;51.50;;;;;;10453105;28;20130;-63
2022/08/07 18:36:31;;;;;;;0.28;0.10;;;26.10;53.00;;;;;;10451515;28;20048;-63
2022/08/07 18:41:52;;;;;;;0.00;0.00;;;25.80;52.60;;;;;;10450425;28;20542;-63
2022/08/07 18:47:05;;;;;;;1.65;0.10;;;25.50;53.00;;;;;;10448583;28;20044;-63
2022/08/07 18:52:36;;;;;;;1.80;0.20;;;25.20;53.20;;;;;;10459688;28;20624;-63
2022/08/07 18:58:11;;;;;;;0.30;0.20;;;25.00;53.80;;;;;;10448570;28;20080;-63
2022/08/07 19:03:15;;;;;;;1.75;0.10;;;24.70;54.10;;;;;;10450568;28;20048;-62
2022/08/07 19:08:42;;;;;;;1.85;0.30;;;24.40;54.50;;;;;;10449925;28;20384;-61
2022/08/07 19:14:12;;;;;;;0.85;0.10;;;24.20;55.10;;;;;;10451074;28;20480;-61
2022/08/07 19:19:52;;;;;;;0.10;0.10;;;23.90;55.60;;;;;;10446572;28;20044;-60
2022/08/07 19:24:54;;;;;;;2.65;0.10;;;23.70;56.20;;;;;;10452721;28;20041;-60
2022/08/07 19:30:00;;;;;;;0.35;0.10;;;23.50;56.60;;;;;;10440325;28;20049;-61
2022/08/07 19:35:25;;;;;;;1.23;0.10;;;23.30;57.00;;;;;;10450937;28;20052;-61
2022/08/07 19:40:35;;;;;;;1.83;0.10;;;23.10;57.50;;;;;;10450620;28;20045;-59
2022/08/07 19:45:42;;;;;;;0.38;0.20;;;22.90;57.90;;;;;;10453470;28;20103;-60
2022/08/07 19:51:05;;;;;;;4.68;0.25;;;22.80;58.40;;;;;;10458542;28;20053;-60
2022/08/07 19:56:29;;;;;;;1.35;0.10;;;22.60;58.70;;;;;;10465539;28;20530;-60
2022/08/07 20:01:53;;;;;;;0.10;0.10;;;22.50;59.20;;;;;;10458919;28;20099;-60
2022/08/07 20:06:59;;;;;;;0.75;0.10;;;22.30;59.60;;;;;;10456988;28;20045;-60
2022/08/07 20:12:01;;;;;;;0.65;0.10;;;22.20;59.90;;;;;;10458087;28;20052;-60
2022/08/07 20:17:25;;;;;;;1.58;0.20;;;22.10;60.10;;;;;;10455876;28;20126;-61
2022/08/07 20:22:28;;;;;;;0.20;0.20;;;22.00;60.40;;;;;;10458470;28;20487;-60
2022/08/07 20:27:37;;;;;;;0.73;0.30;;;21.90;60.60;;;;;;10457502;28;20388;-60
2022/08/07 20:32:53;;;;;;;0.20;0.10;;;21.80;61.30;;;;;;10457982;28;20072;-60
2022/08/07 20:37:57;;;;;;;0.00;0.00;;;21.70;60.90;;;;;;10456583;28;20816;-59
2022/08/07 20:43:03;;;;;;;0.28;0.00;;;21.60;61.00;;;;;;10453255;28;20049;-60
2022/08/07 20:48:26;;;;;;;0.45;0.10;;;21.50;61.10;;;;;;10452807;28;20381;-60
2022/08/07 20:53:33;;;;;;;0.17;0.10;;;21.40;61.90;;;;;;10455630;28;20044;-60
2022/08/07 20:59:00;;;;;;;1.35;0.10;;;21.30;61.90;;;;;;10455254;28;20053;-60
2022/08/07 21:04:03;;;;;;;0.25;0.10;;;21.20;62.40;;;;;;10451927;28;20052;-60
2022/08/07 21:09:31;;;;;;;0.20;0.10;;;21.00;62.50;;;;;;10466645;28;20053;-61
2022/08/07 21:14:55;;;;;;;0.60;0.10;;;20.90;63.30;;;;;;10456103;28;20048;-61
2022/08/07 21:19:58;;;;;;;0.75;0.20;;;20.80;64.20;;;;;;10452762;28;20403;-60
2022/08/07 21:25:12;;;;;;;0.95;0.10;;;20.70;64.30;;;;;;10457538;28;20044;-60
2022/08/07 21:30:17;;;;;;;2.17;0.10;;;20.50;64.50;;;;;;10455873;28;20048;-59
2022/08/07 21:35:36;;;;;;;0.50;0.10;;;20.40;64.40;;;;;;10456381;28;20047;-60
2022/08/07 21:41:07;;;;;;;0.63;0.10;;;20.40;64.60;;;;;;10450478;28;20057;-60
2022/08/07 21:46:21;;;;;;;0.98;0.10;;;20.30;64.60;;;;;;10457168;28;20715;-61
2022/08/07 21:51:45;;;;;;;0.10;0.10;;;20.20;64.40;;;;;;10454695;28;20368;-60
2022/08/07 21:57:18;;;;;;;2.17;0.10;;;20.20;64.40;;;;;;10448399;28;20053;-60
2022/08/07 22:03:09;;;;;;;5.18;0.05;;;20.10;64.20;;;;;;10446997;28;20217;-59
2022/08/07 22:08:13;;;;;;;0.98;0.20;;;20.10;64.20;;;;;;10458334;28;20487;-60
2022/08/07 22:13:21;;;;;;;0.25;0.10;;;20.00;64.50;;;;;;10445099;28;20054;-60
2022/08/07 22:19:03;;;;;;;1.20;0.10;;;20.00;64.90;;;;;;10454197;28;20147;-60
2022/08/07 22:24:18;;;;;;;1.92;0.15;;;19.90;65.40;;;;;;10452515;28;20072;-60
2022/08/07 22:29:53;;;;;;;0.45;0.10;;;19.90;66.30;;;;;;10451001;28;20087;-60
2022/08/07 22:34:59;;;;;;;0.10;0.10;;;19.80;67.10;;;;;;10450357;28;20068;-60
2022/08/07 22:40:40;;;;;;;0.25;0.08;;;19.80;68.10;;;;;;10453798;28;20609;-61
2022/08/07 22:46:03;;;;;;;0.30;0.30;;;19.80;68.80;;;;;;10450807;28;20052;-60
2022/08/07 22:51:56;;;;;;;0.52;0.10;;;19.80;69.10;;;;;;10457386;28;20103;-60
2022/08/07 22:57:06;;;;;;;0.00;0.00;;;19.80;69.40;;;;;;10445694;28;20067;-60
2022/08/07 23:02:24;;;;;;;0.63;0.10;;;19.80;69.80;;;;;;10454669;28;20055;-60
2022/08/07 23:08:00;;;;;;;0.98;0.30;;;19.70;70.00;;;;;;10448981;28;20057;-61
2022/08/07 23:13:46;;;;;;;1.67;0.10;;;19.60;70.40;;;;;;10447005;28;20455;-60
2022/08/07 23:25:35;;;;;;;0.38;0.20;;;19.40;71.30;;;;;;10456117;28;20045;-60
2022/08/07 23:31:02;;;;;;;0.77;0.10;;;19.30;71.50;;;;;;10458294;28;20051;-60
2022/08/07 23:36:37;;;;;;;0.10;0.10;;;19.20;72.20;;;;;;10460172;28;20372;-60
2022/08/07 23:41:50;;;;;;;0.55;0.20;;;19.10;73.30;;;;;;10456541;28;20052;-60
2022/08/07 23:47:46;;;;;;;2.72;0.10;;;19.00;74.30;;;;;;10462103;28;20060;-60
2022/08/07 23:52:59;;;;;;;0.10;0.10;;;18.80;75.30;;;;;;10462458;28;20053;-59
2022/08/07 23:58:13;;;;;;;0.17;0.10;;;18.70;75.40;;;;;;10463395;28;20134;-60
